Trimdon, United Kingdom
Current Conditions -  °F | °C
As of 3:20 PM on Saturday 20 Dec 2014 (Local Time) from EGNV Reporting Station
Few Clouds Few Clouds  
Wind Chill: 42°   Ceiling: Unl
Heat Index: 46°   Visibility: 6mi
Dew Point: 36°   Wind: 8mph
Humidity: 66%   Direction: 270°W
Pressure: 30.18"   Gusts: NA
Location:  54.7°N, 1.43°W
Report Text: EGNV 201520Z 27007KT 9999 FEW045 08/02 Q1022
Loading
Personal Weather Stations






























Interactive Weather Map New forecast layout! Learn more

10-Day Weather Forecast

Advertisements
Track Severe Weather on mobile